Terminal Aerodrome Forecast
Issued by NWS Jackson, KY

Home | Current Version | Previous Version | Text Only | Print | Product List | Glossary On
Versions: 1 2 3 4 5 6 7 8 9 10 11 12
000
FTUS43 KJKL 221700 RRA
TAFJKL
TAF
KJKL 221745Z 2218/2318 35003KT P6SM SCT015 OVC025
     FM222200 34004KT P6SM SCT025 SCT050
     FM230300 VRB03KT P6SM FEW030
     FM230900 00000KT 4SM BR SCT050
     FM231300 04002KT P6SM SCT050=

USA.gov is the U.S. government's official web portal to all federal, state and local government web resources and services.